Time;durP1;ratioP1;P1;durP2;ratioP2;P2;SDS_P1;SDS_P2;PMS_P1;PMS_P2;Temp;Humidity;BMP_temperature;BMP_pressure;BME280_temperature;BME280_humidity;BME280_pressure;Samples;Min_cycle;Max_cycle;Signal;HPM_P1;HPM_P2
2021/12/26 19:22:50;;;;;;;166.93;115.53;;;;;;;18.79;42.76;100773.09;2104071;27;21253;-75
2021/12/26 19:23:56;;;;;;;175.00;108.50;;;;;;;18.90;39.56;100785.13;2104999;28;20052;-77
2021/12/26 19:25:04;;;;;;;474.85;218.45;;;;;;;18.67;37.91;100795.03;2104487;28;20425;-73
2021/12/26 19:26:11;;;;;;;258.45;128.38;;;;;;;18.41;38.59;100782.59;2105719;28;20157;-73
2021/12/26 19:27:21;;;;;;;228.63;122.63;;;;;;;18.15;38.21;100793.09;2106390;28;20094;-75
2021/12/26 19:28:34;;;;;;;267.60;124.85;;;;;;;17.93;38.15;100791.63;2103215;28;20157;-76
2021/12/26 19:29:43;;;;;;;211.25;114.75;;;;;;;17.80;38.28;100793.56;2104691;28;20063;-76
2021/12/26 19:30:49;;;;;;;207.27;108.13;;;;;;;17.65;37.67;100794.25;2109533;28;20048;-75
2021/12/26 19:31:56;;;;;;;207.40;107.63;;;;;;;17.44;37.85;100797.06;2108429;28;20062;-75
2021/12/26 19:33:03;;;;;;;173.57;95.85;;;;;;;17.34;37.75;100787.38;2107995;28;20537;-75
2021/12/26 19:34:32;;;;;;;186.90;100.20;;;;;;;17.30;38.07;100798.19;2106208;28;20149;-76
2021/12/26 19:35:37;;;;;;;167.75;93.53;;;;;;;17.23;38.20;100802.59;2106671;28;20047;-75
2021/12/26 19:36:46;;;;;;;155.27;87.78;;;;;;;17.15;37.71;100801.56;2102947;28;20058;-75
2021/12/26 19:37:55;;;;;;;151.70;86.07;;;;;;;17.11;36.92;100806.88;2099439;28;20377;-77
2021/12/26 19:40:20;;;;;;;132.05;76.40;;;;;;;16.98;37.65;100807.97;2098728;28;20055;-75
2021/12/26 19:41:25;;;;;;;134.45;76.03;;;;;;;17.00;37.37;100804.91;2101936;28;20411;-72
2021/12/26 19:42:31;;;;;;;125.43;73.20;;;;;;;16.97;37.26;100805.59;2097487;28;20045;-73
2021/12/26 19:43:35;;;;;;;126.13;73.72;;;;;;;16.95;37.37;100814.09;2097336;28;20063;-73
2021/12/26 19:44:40;;;;;;;118.68;67.25;;;;;;;16.87;36.71;100807.59;2096667;28;20052;-73
2021/12/26 19:45:49;;;;;;;108.30;67.13;;;;;;;16.82;37.33;100809.72;2098617;28;20036;-76
2021/12/26 19:46:54;;;;;;;;;;;;;;;16.81;37.75;100819.84;2098144;28;20060;-74
2021/12/26 19:47:59;;;;;;;105.72;62.50;;;;;;;16.80;37.62;100818.25;2097470;28;20629;-76
2021/12/26 19:49:07;;;;;;;105.00;62.55;;;;;;;16.78;37.83;100817.00;2099944;28;20088;-75
2021/12/26 19:50:14;;;;;;;107.20;61.00;;;;;;;16.72;37.63;100810.94;2099972;28;20063;-76
2021/12/26 19:51:19;;;;;;;96.93;59.83;;;;;;;16.77;37.63;100815.41;2101321;28;20055;-74
2021/12/26 19:52:26;;;;;;;98.80;54.97;;;;;;;16.77;37.40;100818.13;2100989;28;20044;-76
2021/12/26 19:53:36;;;;;;;90.13;54.70;;;;;;;16.78;37.32;100811.53;2099891;28;20052;-74
2021/12/26 19:54:42;;;;;;;89.95;52.85;;;;;;;16.81;36.62;100819.06;2099113;28;20791;-73
2021/12/26 19:55:48;;;;;;;81.68;50.60;;;;;;;16.84;36.32;100812.91;2097595;28;20048;-76
2021/12/26 19:56:53;;;;;;;88.55;51.65;;;;;;;16.81;37.19;100813.59;2096209;28;20065;-74
2021/12/26 19:57:56;;;;;;;79.88;49.30;;;;;;;16.79;36.62;100813.13;2095069;28;20055;-71
2021/12/26 19:59:02;;;;;;;82.53;48.53;;;;;;;16.71;36.84;100814.81;2098346;28;20059;-73
2021/12/26 20:00:13;;;;;;;85.03;49.90;;;;;;;16.65;36.82;100805.22;2097220;28;20440;-72
2021/12/26 20:01:22;;;;;;;80.13;46.15;;;;;;;16.72;36.82;100810.13;2096192;28;20506;-73
2021/12/26 20:02:30;;;;;;;75.63;45.50;;;;;;;16.72;36.42;100810.13;2097931;28;20803;-73
2021/12/26 20:03:40;;;;;;;77.57;45.25;;;;;;;16.76;36.75;100811.06;2096405;28;20044;-73
2021/12/26 20:06:11;;;;;;;67.13;41.95;;;;;;;16.75;36.38;100804.81;2095744;28;20060;-73
2021/12/26 20:07:15;;;;;;;71.35;39.83;;;;;;;16.72;36.61;100807.41;2097449;28;20045;-76
2021/12/26 20:08:20;;;;;;;59.35;38.85;;;;;;;16.72;36.78;100804.69;2098960;28;20495;-73
2021/12/26 20:09:29;;;;;;;61.35;36.80;;;;;;;16.84;36.87;100813.72;2099245;28;20048;-75
2021/12/26 20:10:37;;;;;;;56.33;36.22;;;;;;;16.82;36.67;100805.06;2094920;28;20711;-75
2021/12/26 20:11:43;;;;;;;55.33;33.95;;;;;;;16.72;36.51;100812.88;2093842;28;20787;-72
2021/12/26 20:12:46;;;;;;;56.05;32.80;;;;;;;16.65;37.17;100811.47;2094946;28;20425;-78
2021/12/26 20:13:52;;;;;;;52.55;29.52;;;;;;;16.64;35.97;100806.34;2095498;28;20052;-68
2021/12/26 20:15:02;;;;;;;55.95;31.20;;;;;;;16.61;36.05;100799.59;2097249;28;20061;-70
2021/12/26 20:16:10;;;;;;;61.65;30.48;;;;;;;16.57;35.88;100809.56;2094372;28;20052;-70
2021/12/26 20:17:18;;;;;;;53.50;30.77;;;;;;;16.52;36.60;100809.78;2092863;28;20159;-68
2021/12/26 20:18:21;;;;;;;55.22;29.48;;;;;;;16.52;35.73;100800.81;2093256;28;20064;-67
2021/12/26 20:19:27;;;;;;;56.70;31.77;;;;;;;16.57;36.13;100804.13;2093337;28;20059;-71
2021/12/26 20:20:34;;;;;;;45.30;27.77;;;;;;;16.52;35.91;100801.59;2105817;28;20048;-70
2021/12/26 20:21:44;;;;;;;46.50;27.35;;;;;;;16.47;35.20;100796.34;2097883;28;20044;-70
2021/12/26 20:22:50;;;;;;;48.78;28.45;;;;;;;16.52;35.42;100800.81;2091593;28;20048;-70
2021/12/26 20:23:57;;;;;;;45.08;26.33;;;;;;;16.49;35.72;100812.38;2097476;28;20056;-71
2021/12/26 20:25:07;;;;;;;41.63;26.60;;;;;;;16.48;36.13;100799.84;2097904;28;20074;-68
2021/12/26 20:26:14;;;;;;;46.22;27.73;;;;;;;16.38;35.85;100801.84;2088215;28;20053;-67
2021/12/26 20:27:19;;;;;;;44.78;28.55;;;;;;;16.35;36.79;100804.44;2093050;28;20274;-67
2021/12/26 20:28:23;;;;;;;43.92;26.23;;;;;;;16.40;36.62;100804.25;2095009;28;20473;-68
2021/12/26 20:29:29;;;;;;;46.38;28.45;;;;;;;16.49;36.20;100813.19;2095749;28;20059;-66
2021/12/26 20:30:32;;;;;;;46.38;27.77;;;;;;;16.49;36.98;100809.66;2099333;28;20527;-67
2021/12/26 20:31:37;;;;;;;42.47;27.20;;;;;;;16.50;36.58;100820.22;2090596;28;20087;-66
2021/12/26 20:32:42;;;;;;;48.75;26.77;;;;;;;16.43;36.00;100815.28;2099344;28;20059;-66
2021/12/26 20:33:47;;;;;;;46.55;27.35;;;;;;;16.40;35.76;100809.72;2098455;28;20052;-67
2021/12/26 20:34:53;;;;;;;41.78;26.10;;;;;;;16.33;36.41;100814.91;2091628;28;20064;-66
2021/12/26 20:35:57;;;;;;;43.97;26.00;;;;;;;16.35;36.80;100807.16;2090578;28;20281;-66
2021/12/26 20:37:02;;;;;;;45.75;26.25;;;;;;;16.33;36.25;100815.69;2092312;28;20127;-66
2021/12/26 20:38:08;;;;;;;39.58;25.08;;;;;;;16.31;36.40;100811.69;2089646;28;20064;-66
2021/12/26 20:39:14;;;;;;;41.70;25.98;;;;;;;16.32;36.53;100813.28;2088331;28;20500;-66
2021/12/26 20:40:23;;;;;;;43.40;25.20;;;;;;;16.29;35.94;100813.94;2089882;28;20439;-67
2021/12/26 20:41:31;;;;;;;40.83;25.98;;;;;;;16.27;37.05;100816.22;2090681;28;20071;-68
2021/12/26 20:42:34;;;;;;;40.78;24.52;;;;;;;16.23;36.06;100810.63;2093519;28;20056;-66
2021/12/26 20:43:40;;;;;;;41.05;24.98;;;;;;;16.27;36.47;100811.56;2094555;28;20048;-65
2021/12/26 20:44:50;;;;;;;41.97;24.65;;;;;;;16.27;36.37;100810.78;2095289;28;20064;-66
2021/12/26 20:45:56;;;;;;;43.85;24.58;;;;;;;16.29;35.88;100817.47;2093512;28;20048;-66
2021/12/26 20:47:01;;;;;;;39.95;23.40;;;;;;;16.31;36.56;100812.50;2091198;28;20052;-66
2021/12/26 20:48:07;;;;;;;43.28;24.35;;;;;;;16.34;36.55;100813.75;2091295;28;20599;-66
2021/12/26 20:49:15;;;;;;;36.67;21.30;;;;;;;16.29;35.26;100808.50;2088471;28;20048;-66
2021/12/26 20:50:21;;;;;;;35.95;21.67;;;;;;;16.26;35.20;100807.22;2089903;28;20625;-66
2021/12/26 20:51:27;;;;;;;33.70;21.17;;;;;;;16.28;35.66;100813.16;2092569;28;20059;-66
2021/12/26 20:52:33;;;;;;;34.88;21.27;;;;;;;16.21;35.27;100807.44;2094586;28;20059;-66
2021/12/26 20:53:41;;;;;;;34.15;20.40;;;;;;;16.20;35.27;100806.63;2097021;28;20066;-66
2021/12/26 20:54:47;;;;;;;36.83;21.67;;;;;;;16.20;35.84;100806.63;2091405;28;20048;-66
2021/12/26 20:55:53;;;;;;;32.38;19.38;;;;;;;16.14;34.65;100804.44;2092170;28;20423;-65
2021/12/26 20:56:57;;;;;;;30.85;19.67;;;;;;;16.17;35.23;100811.97;2091361;28;20621;-64
2021/12/26 20:57:59;;;;;;;31.17;18.38;;;;;;;16.23;35.38;100807.91;2085475;28;20063;-65
2021/12/26 20:59:06;;;;;;;28.30;18.52;;;;;;;16.28;35.17;100806.91;2083057;28;20053;-65
2021/12/26 21:00:13;;;;;;;34.42;19.55;;;;;;;16.25;35.47;100815.75;2080111;28;20056;-66
2021/12/26 21:01:17;;;;;;;31.52;18.55;;;;;;;16.19;35.32;100815.94;2089823;28;20045;-65
2021/12/26 21:02:22;;;;;;;28.08;18.15;;;;;;;16.25;34.82;100813.81;2091652;28;20092;-66
2021/12/26 21:03:29;;;;;;;31.45;18.17;;;;;;;16.20;35.19;100808.56;2090518;28;20079;-66
2021/12/26 21:04:35;;;;;;;30.33;17.35;;;;;;;16.16;35.35;100813.88;2089825;28;20789;-66
2021/12/26 21:05:41;;;;;;;29.45;17.40;;;;;;;16.15;35.54;100815.00;2090365;28;20154;-69
2021/12/26 21:06:47;;;;;;;28.27;16.83;;;;;;;16.12;35.30;100815.66;2090841;28;20110;-71
2021/12/26 21:07:56;;;;;;;31.30;17.20;;;;;;;16.11;35.03;100816.78;2086808;28;20851;-71
2021/12/26 21:09:04;;;;;;;32.58;17.15;;;;;;;16.19;35.01;100823.31;2080101;28;20050;-68
2021/12/26 21:10:11;;;;;;;25.45;15.88;;;;;;;16.20;34.35;100817.53;2089603;28;20518;-67
2021/12/26 21:11:20;;;;;;;25.40;15.70;;;;;;;16.13;34.27;100819.97;2090890;28;20742;-67
2021/12/26 21:12:24;;;;;;;28.58;16.42;;;;;;;16.18;34.53;100813.53;2093063;28;20048;-69
2021/12/26 21:13:29;;;;;;;25.77;15.70;;;;;;;16.17;34.49;100814.69;2090948;28;20045;-69
2021/12/26 21:14:35;;;;;;;26.05;16.55;;;;;;;16.20;34.22;100820.28;2091254;28;20048;-67
2021/12/26 21:15:39;;;;;;;25.27;16.02;;;;;;;16.26;34.47;100818.13;2090142;28;20056;-69
2021/12/26 21:16:48;;;;;;;26.23;15.32;;;;;;;16.27;34.18;100827.94;2087401;28;20501;-68
2021/12/26 21:17:55;;;;;;;25.02;15.77;;;;;;;16.28;34.43;100821.34;2087949;28;20052;-70
2021/12/26 21:19:05;;;;;;;28.08;15.88;;;;;;;16.27;34.60;100816.22;2089665;28;20064;-68
2021/12/26 21:20:11;;;;;;;25.10;15.50;;;;;;;16.25;34.36;100821.19;2088724;28;20053;-69
2021/12/26 21:21:20;;;;;;;24.42;14.85;;;;;;;16.28;34.46;100818.59;2090232;28;20546;-68
2021/12/26 21:22:23;;;;;;;25.75;15.15;;;;;;;16.28;33.90;100815.88;2090458;28;20053;-68
2021/12/26 21:23:32;;;;;;;22.17;14.02;;;;;;;16.19;33.76;100817.84;2085304;28;20048;-69
2021/12/26 21:24:37;;;;;;;26.08;14.07;;;;;;;16.21;33.74;100819.13;2094332;28;20657;-68
2021/12/26 21:25:43;;;;;;;24.20;13.82;;;;;;;16.27;33.73;100822.47;2096614;28;20059;-70
2021/12/26 21:26:53;;;;;;;32.92;13.32;;;;;;;16.30;34.13;100821.03;2091387;28;20407;-65
2021/12/26 21:27:57;;;;;;;25.92;14.00;;;;;;;16.33;33.98;100821.16;2090994;28;20420;-65
2021/12/26 21:29:04;;;;;;;25.08;12.75;;;;;;;16.30;33.05;100815.56;2088719;28;20091;-65
2021/12/26 21:30:11;;;;;;;24.30;12.63;;;;;;;16.28;33.04;100813.16;2090786;28;20056;-68
2021/12/26 21:31:15;;;;;;;25.02;13.95;;;;;;;16.39;35.75;100821.75;2090836;28;20040;-67
2021/12/26 21:32:18;;;;;;;22.17;13.13;;;;;;;16.58;35.77;100816.63;2087631;28;20053;-69
2021/12/26 21:34:52;;;;;;;23.48;13.57;;;;;;;16.99;36.29;100816.97;2087898;28;20246;-68
2021/12/26 21:35:55;;;;;;;23.83;13.68;;;;;;;17.13;36.42;100818.25;2095598;28;20114;-67
2021/12/26 21:36:59;;;;;;;22.38;13.57;;;;;;;17.30;36.27;100819.19;2093911;28;20055;-64
2021/12/26 21:38:05;;;;;;;122.93;51.88;;;;;;;17.49;36.08;100824.94;2087236;28;20053;-66
2021/12/26 21:39:11;;;;;;;212.32;92.30;;;;;;;17.64;35.95;100819.97;2087300;28;20052;-67
2021/12/26 21:40:21;;;;;;;159.32;71.72;;;;;;;17.79;35.93;100820.09;2088821;28;20063;-68
2021/12/26 21:41:27;;;;;;;138.20;59.42;;;;;;;17.94;35.77;100829.56;2090249;28;20471;-68
2021/12/26 21:42:35;;;;;;;143.95;64.68;;;;;;;18.06;35.72;100823.31;2092248;28;20064;-68
2021/12/26 21:43:40;;;;;;;137.10;62.83;;;;;;;18.22;35.69;100823.41;2087704;28;20053;-68
2021/12/26 21:44:44;;;;;;;129.02;61.47;;;;;;;18.34;35.66;100817.88;2086437;28;20547;-67
2021/12/26 21:45:54;;;;;;;129.38;60.17;;;;;;;18.37;35.62;100806.28;2086076;28;20052;-69
2021/12/26 21:47:01;;;;;;;134.65;59.17;;;;;;;18.53;35.49;100809.09;2088419;28;21061;-69
2021/12/26 21:48:08;;;;;;;122.28;58.22;;;;;;;18.67;35.39;100820.47;2089744;28;20072;-68
2021/12/26 21:49:13;;;;;;;117.60;56.03;;;;;;;18.79;35.19;100818.84;2089430;28;20436;-68
2021/12/26 21:50:22;;;;;;;;;;;;;;;18.90;35.17;100817.19;2090652;28;20061;-69
2021/12/26 21:51:28;;;;;;;117.82;52.92;;;;;;;18.98;35.07;100819.78;2092587;28;19924;-69
2021/12/26 21:52:34;;;;;;;106.95;51.92;;;;;;;19.07;34.95;100822.38;2086124;28;20043;-68
2021/12/26 21:55:00;;;;;;;102.80;49.22;;;;;;;19.27;34.75;100815.09;2089678;28;20057;-69
2021/12/26 21:56:06;;;;;;;103.32;49.13;;;;;;;19.34;34.75;100815.28;2097190;28;20092;-68
2021/12/26 21:57:17;;;;;;;100.68;48.38;;;;;;;19.42;34.71;100819.78;2096092;28;20056;-69
2021/12/26 21:58:27;;;;;;;100.35;48.35;;;;;;;19.51;34.67;100818.81;2091901;28;20044;-69
2021/12/26 21:59:31;;;;;;;88.03;46.35;;;;;;;19.58;34.52;100819.00;2085287;28;20814;-68
2021/12/26 22:00:38;;;;;;;85.28;45.03;;;;;;;19.65;34.50;100816.44;2088200;28;20049;-68
2021/12/26 22:01:44;;;;;;;83.93;43.25;;;;;;;19.72;34.43;100818.56;2085792;28;20057;-70
2021/12/26 22:02:51;;;;;;;86.50;44.30;;;;;;;19.76;34.32;100820.25;2087249;28;20056;-69
2021/12/26 22:03:54;;;;;;;88.05;43.67;;;;;;;19.82;34.44;100812.53;2089216;28;20052;-70
2021/12/26 22:05:00;;;;;;;90.13;42.35;;;;;;;19.89;34.29;100823.69;2089393;28;20052;-73
2021/12/26 22:06:05;;;;;;;76.57;41.70;;;;;;;19.92;34.41;100831.19;2096515;28;20059;-70
2021/12/26 22:07:10;;;;;;;81.55;42.80;;;;;;;19.98;34.40;100815.28;2094407;28;20047;-70
2021/12/26 22:08:15;;;;;;;78.88;40.97;;;;;;;20.04;34.27;100824.81;2086047;28;20472;-70
2021/12/26 22:09:27;;;;;;;73.90;38.95;;;;;;;20.09;34.40;100819.06;2086979;28;20041;-70
2021/12/26 22:10:34;;;;;;;79.18;39.58;;;;;;;20.16;34.27;100821.19;2086760;28;20112;-72
2021/12/26 22:11:40;;;;;;;72.50;38.40;;;;;;;20.19;34.19;100815.78;2088329;28;20119;-71
2021/12/26 22:12:45;;;;;;;70.03;38.28;;;;;;;20.24;34.24;100817.47;2089220;28;20053;-71
2021/12/26 22:13:51;;;;;;;71.68;38.65;;;;;;;20.28;34.15;100818.31;2091383;28;20049;-71
2021/12/26 22:14:59;;;;;;;73.63;37.78;;;;;;;20.31;34.20;100810.16;2091493;28;20045;-71
2021/12/26 22:16:07;;;;;;;71.00;36.35;;;;;;;20.35;34.11;100819.25;2076159;28;20056;-70
2021/12/26 22:17:12;;;;;;;69.20;35.78;;;;;;;20.38;34.00;100822.44;2084343;28;20053;-70
2021/12/26 22:18:20;;;;;;;64.82;35.85;;;;;;;20.41;34.07;100814.28;2086211;28;20048;-70
2021/12/26 22:19:23;;;;;;;67.07;36.28;;;;;;;20.43;34.05;100820.22;2086731;28;20929;-70
2021/12/26 22:20:30;;;;;;;67.90;35.60;;;;;;;20.46;33.96;100813.22;2088723;28;20163;-72
2021/12/26 22:21:33;;;;;;;67.50;36.40;;;;;;;20.48;33.95;100814.44;2089580;28;20214;-72
2021/12/26 22:22:40;;;;;;;66.47;35.28;;;;;;;20.50;34.00;100814.88;2091281;28;20376;-70
2021/12/26 22:23:50;;;;;;;65.22;34.30;;;;;;;20.53;34.02;100818.88;2090485;28;20385;-70
2021/12/26 22:24:54;;;;;;;58.60;34.47;;;;;;;20.54;34.01;100820.44;2085313;28;20067;-71
2021/12/26 22:26:00;;;;;;;62.25;34.08;;;;;;;20.56;34.00;100818.16;2084204;28;20095;-72
2021/12/26 22:27:04;;;;;;;64.53;34.78;;;;;;;20.58;34.05;100818.56;2085919;28;20059;-71
2021/12/26 22:28:08;;;;;;;61.33;31.92;;;;;;;20.59;33.97;100825.66;2086519;28;20052;-71
2021/12/26 22:29:15;;;;;;;60.50;32.30;;;;;;;20.61;34.06;100823.31;2086963;28;20428;-71
2021/12/26 22:30:25;;;;;;;59.28;31.65;;;;;;;20.62;34.11;100822.19;2090351;28;20665;-70
2021/12/26 22:31:30;;;;;;;56.83;32.05;;;;;;;20.64;34.03;100824.56;2090088;28;20056;-70
2021/12/26 22:32:35;;;;;;;56.10;31.30;;;;;;;20.65;34.17;100826.16;2092101;28;20052;-71
2021/12/26 22:33:41;;;;;;;56.50;30.30;;;;;;;20.66;34.13;100820.31;2085424;28;20059;-72
2021/12/26 22:34:44;;;;;;;53.70;31.00;;;;;;;20.68;34.22;100818.00;2084499;28;20063;-70
2021/12/26 22:35:52;;;;;;;60.47;31.92;;;;;;;20.70;34.21;100823.16;2085805;28;20060;-70
2021/12/26 22:36:58;;;;;;;51.95;30.50;;;;;;;20.70;34.14;100832.19;2086621;28;20052;-70
2021/12/26 22:38:03;;;;;;;49.25;29.05;;;;;;;20.72;34.32;100832.63;2088792;28;20057;-70
2021/12/26 22:39:08;;;;;;;55.47;29.85;;;;;;;20.74;34.22;100824.00;2088894;28;20048;-67
2021/12/26 22:40:15;;;;;;;51.50;30.17;;;;;;;20.74;34.24;100824.81;2092053;28;20420;-67
2021/12/26 22:41:18;;;;;;;56.08;28.00;;;;;;;20.77;34.09;100828.78;2092061;28;20045;-68
2021/12/26 22:42:23;;;;;;;52.95;28.67;;;;;;;20.75;34.25;100829.16;2092402;28;20052;-68
2021/12/26 22:43:29;;;;;;;48.83;28.27;;;;;;;20.76;34.12;100832.69;2092388;28;20071;-68
2021/12/26 22:44:36;;;;;;;50.00;28.88;;;;;;;20.56;34.37;100796.97;2093245;28;20523;-70
2021/12/26 22:45:42;;;;;;;49.38;27.40;;;;;;;20.76;34.50;100828.00;2093078;28;20044;-73
2021/12/26 22:46:45;;;;;;;49.83;28.67;;;;;;;20.78;34.53;100824.91;2093044;28;20055;-73
2021/12/26 22:47:50;;;;;;;46.15;28.20;;;;;;;20.81;35.04;100835.16;2092851;28;20048;-73
2021/12/26 22:48:54;;;;;;;46.72;27.23;;;;;;;20.82;34.70;100832.03;2093383;28;20057;-74
2021/12/26 22:49:59;;;;;;;47.30;27.75;;;;;;;20.82;35.06;100826.53;2093853;28;20056;-75
2021/12/26 22:51:02;;;;;;;45.20;26.98;;;;;;;20.87;34.85;100832.91;2094284;28;20547;-74
2021/12/26 22:54:50;;;;;;;42.97;25.17;;;;;;;20.88;34.74;100832.53;2101551;28;20056;-71
2021/12/26 22:57:17;;;;;;;41.28;24.33;;;;;;;20.91;34.73;100828.28;2091730;28;20060;-71
2021/12/26 22:58:20;;;;;;;40.83;24.20;;;;;;;20.92;34.63;100821.63;2092988;28;20056;-69
2021/12/26 22:59:26;;;;;;;40.03;24.23;;;;;;;20.93;34.73;100823.22;2093903;28;20056;-69
2021/12/26 23:00:50;;;;;;;41.00;22.70;;;;;;;20.92;34.75;100830.66;2093448;28;20067;-68
2021/12/26 23:01:55;;;;;;;36.08;22.17;;;;;;;20.92;34.68;100827.91;2093479;28;20579;-70
2021/12/26 23:03:04;;;;;;;34.13;21.40;;;;;;;20.93;34.72;100820.47;2092349;28;20041;-72
2021/12/26 23:04:08;;;;;;;;;;;;;;;20.93;34.65;100823.22;2094023;28;20047;-72
2021/12/26 23:05:17;;;;;;;34.65;20.27;;;;;;;20.89;34.59;100819.59;2093086;28;19921;-70
2021/12/26 23:06:20;;;;;;;35.58;20.85;;;;;;;20.92;34.57;100824.38;2092773;28;20107;-70
2021/12/26 23:07:28;;;;;;;36.92;19.80;;;;;;;20.77;34.65;100798.56;2101996;28;20086;-71
2021/12/26 23:08:32;;;;;;;34.85;19.38;;;;;;;20.91;34.45;100817.31;2102079;28;20047;-70
2021/12/26 23:09:38;;;;;;;33.90;19.20;;;;;;;20.92;34.33;100824.38;2101320;28;20187;-70
2021/12/26 23:10:42;;;;;;;28.85;18.33;;;;;;;20.92;34.26;100816.91;2101366;28;20514;-69
2021/12/26 23:11:54;;;;;;;32.85;18.52;;;;;;;20.91;34.52;100817.31;2101636;28;20346;-70
2021/12/26 23:13:01;;;;;;;31.10;18.35;;;;;;;20.92;34.40;100814.19;2101308;28;20515;-69
2021/12/26 23:14:08;;;;;;;31.80;18.25;;;;;;;20.92;34.30;100813.38;2092864;28;20098;-70
2021/12/26 23:15:14;;;;;;;32.90;17.30;;;;;;;20.93;34.29;100820.47;2093486;28;20056;-71
2021/12/26 23:16:24;;;;;;;30.55;17.77;;;;;;;20.92;34.27;100819.66;2093608;28;20127;-71
2021/12/26 23:17:34;;;;;;;30.17;17.88;;;;;;;20.92;34.46;100818.88;2093242;28;20052;-68
2021/12/26 23:18:38;;;;;;;28.48;17.30;;;;;;;20.92;34.41;100818.88;2093307;28;20056;-69
2021/12/26 23:19:45;;;;;;;27.58;16.85;;;;;;;20.91;34.38;100815.34;2093631;28;20640;-73
2021/12/26 23:20:49;;;;;;;27.40;16.63;;;;;;;20.91;34.39;100820.84;2092829;28;20048;-71
2021/12/26 23:21:53;;;;;;;29.45;16.83;;;;;;;20.91;34.33;100822.78;2092661;28;20048;-70
2021/12/26 23:22:59;;;;;;;25.77;16.70;;;;;;;20.92;34.48;100819.66;2093159;28;20066;-70
2021/12/26 23:24:08;;;;;;;31.13;17.33;;;;;;;20.92;34.53;100818.88;2093700;28;20530;-70
2021/12/26 23:25:12;;;;;;;27.08;15.98;;;;;;;20.93;34.50;100820.47;2093691;28;20060;-70
2021/12/26 23:26:17;;;;;;;28.63;16.85;;;;;;;20.93;34.53;100826.78;2093490;28;20071;-71
2021/12/26 23:27:21;;;;;;;27.30;16.15;;;;;;;20.93;34.68;100826.78;2093202;28;20057;-71
2021/12/26 23:28:27;;;;;;;26.52;16.23;;;;;;;20.95;34.70;100818.16;2092683;28;20060;-70
2021/12/26 23:29:33;;;;;;;26.92;15.60;;;;;;;20.92;34.61;100824.38;2092422;28;20047;-72
2021/12/26 23:30:43;;;;;;;25.30;15.23;;;;;;;20.94;34.65;100828.34;2092942;28;20064;-72
2021/12/26 23:31:53;;;;;;;24.90;15.52;;;;;;;20.95;34.62;100829.13;2093572;28;20377;-72
2021/12/26 23:32:59;;;;;;;26.38;15.60;;;;;;;20.94;34.49;100838.53;2093327;28;20397;-71
2021/12/26 23:34:05;;;;;;;26.85;14.85;;;;;;;20.95;34.47;100823.66;2092725;28;20060;-71
2021/12/26 23:35:11;;;;;;;23.40;15.10;;;;;;;20.94;34.48;100822.84;2093123;28;20064;-73
2021/12/26 23:36:17;;;;;;;23.77;14.90;;;;;;;20.95;34.57;100823.66;2093296;28;20048;-71
2021/12/26 23:37:25;;;;;;;25.60;15.68;;;;;;;20.95;34.69;100820.91;2093661;28;20048;-72
2021/12/26 23:38:32;;;;;;;22.60;14.52;;;;;;;20.94;34.58;100817.38;2093172;28;20503;-72
2021/12/26 23:39:37;;;;;;;22.58;14.48;;;;;;;20.95;34.57;100818.94;2093027;28;20052;-73
2021/12/26 23:40:46;;;;;;;25.30;14.18;;;;;;;20.92;34.72;100818.88;2093235;28;20040;-73
2021/12/26 23:41:51;;;;;;;22.65;14.75;;;;;;;20.96;34.73;100825.22;2093383;28;20049;-72
2021/12/26 23:42:57;;;;;;;23.48;13.95;;;;;;;20.96;34.58;100814.25;2092997;28;20558;-72
2021/12/26 23:44:04;;;;;;;24.42;13.98;;;;;;;20.92;34.67;100814.19;2093527;28;20435;-72
2021/12/26 23:45:18;;;;;;;22.58;13.63;;;;;;;20.96;34.79;100819.75;2093288;28;20056;-69
2021/12/26 23:46:23;;;;;;;21.05;13.13;;;;;;;20.96;34.77;100822.47;2093148;28;20048;-68
2021/12/26 23:47:30;;;;;;;21.63;12.85;;;;;;;20.96;34.73;100819.75;2093680;28;20052;-69
2021/12/26 23:48:35;;;;;;;20.98;12.68;;;;;;;20.95;34.80;100818.16;2093351;28;20052;-70
2021/12/26 23:49:41;;;;;;;23.30;13.52;;;;;;;20.96;34.77;100827.97;2094234;28;20049;-70
2021/12/26 23:50:47;;;;;;;21.67;12.95;;;;;;;20.93;34.59;100820.47;2094507;28;20495;-69
2021/12/26 23:51:55;;;;;;;21.27;13.15;;;;;;;20.97;34.87;100826.84;2094820;28;20412;-69
2021/12/26 23:53:19;;;;;;;19.63;12.45;;;;;;;20.96;34.87;100826.03;2127090;27;20121;-68
2021/12/26 23:54:23;;;;;;;22.23;13.10;;;;;;;20.97;34.72;100826.84;2127235;27;20043;-68
2021/12/26 23:55:28;;;;;;;22.33;13.02;;;;;;;20.98;34.73;100829.22;2126459;27;20051;-68
2021/12/26 23:56:33;;;;;;;18.77;12.48;;;;;;;20.96;34.81;100826.03;2117547;28;20808;-68
2021/12/26 23:57:41;;;;;;;20.23;12.45;;;;;;;20.97;34.84;100824.09;2109710;28;20059;-68
2021/12/26 23:58:48;;;;;;;18.85;12.65;;;;;;;20.98;34.85;100831.16;2118275;27;20557;-68
2021/12/26 23:59:51;;;;;;;18.83;11.88;;;;;;;20.98;34.80;100833.91;2127380;27;20405;-68
